CFB Cold Lake
CYOD : now visible

Airfield :











YOU CAN JOIN US ON...

 
LOGIN :

Register | Disclaimer

   EN    FR    IT 

 









Legend :    VFR   Marginal VFR   IFR   Intensive IFR   Very Intensive IFR
Visi :
Ceiling :
>= 8 km
>= 3000ft
5 to 8 km
1000 to 3000 ft
1500m to 5 km
500 to 1000 ft
800 to 1500m
200 to 500 ft
< 800m
< 200 ft
Symbols :   Thunderstorms  Fog  Heavy snow  Heavy precipitations  Wind > 20 kt







- Airport Elevation : 1775 ft
- IATA code : YOD


CYOD - CFB Cold Lake

CURRENT METAR :
  • 162200Z 31006KT 15SM FEW120 BKN250 22/13 A2962 RMK AC2CS4 CONTRAILS HALO SLP036

EXPIRED METARs :
  • 162100Z 30003KT 15SM SCT120 BKN250 21/13 A2963 RMK AC3CS4 HALO SLP038
  • 162000Z 30006KT 15SM SCT120 BKN220 21/12 A2963 RMK AC3CI4 SLP039

TAF TAF CYOD
Valid from the 16 at 21:00 until the 17 at 18:00 UTC


162030Z 1621/1718 30008KT P6SM SCT120 BKN220
FM162300 30008KT P6SM BKN120 OVC220
FM170900 33008KT P6SM SCT030 BKN100
FM171200 36008KT P6SM BKN030 RMK NXT FCST BY 170000Z
No reported NOTAMs for that airfield.



MET'MAP, your aeronautical weather chart ! - Copyright ORBIFLY December 2007 - Disclaimer

ORBIFLY MET'MAP TEAM :

Programming & Development : Alexandra Zaïnal
Concept & Development : Baudouin d'Aumeries
Co-Development & Prog : Marc-Olivier Méhu
Technical & hardware support : Manuel Goepfert

Contact : metmap@orbifly.com




SOURCES & CREDITS :

   NOAA       Earth
Advisory